^^
Station Historical Data
Daily Summary for March 13, 2017 Units:  English    Metric   Both
« Previous Day
Next Day »
Daily Weekly Monthly Yearly Custom
  High: Low: Average:
Temperature: 34.8 °F 15.8 °F 24.7 °F
Dew Point: 21.7 °F 3.2 °F 9.2 °F
Humidity: 80% 29% 53%
Wind Speed: 5.0mph 0.0mph 0.7mph
Wind Gust: 14.0mph - -
Wind- - SSW
Pressure: 30.55 in 30.30 in -
Precipitation: 0.00 in    
Historical Graphs
 
 
Tabular Data for March 13, 2017
Time Temperature Dew Point Pressure Wind Wind Speed Wind Gust Humidity Rainfall Rate (Hourly) Conditions
00:00 20.2 °F 3.2 °F 30.43 in NNW 2.0 mph 14.0 mph 47% 0.00 in CLR
00:15 20.0 °F 3.4 °F 30.43 in North 2.0 mph 13.0 mph 48% 0.00 in CLR
00:30 19.8 °F 4.1 °F 30.44 in ESE 1.0 mph 7.0 mph 50% 0.00 in CLR
00:45 19.7 °F 4.0 °F 30.45 in ENE 1.0 mph 9.0 mph 50% 0.00 in CLR
01:00 19.5 °F 4.7 °F 30.45 in NE 1.0 mph 9.0 mph 52% 0.00 in CLR
02:15 18.6 °F 5.1 °F 30.46 in Calm   5.0 mph 55% 0.00 in CLR
02:30 18.5 °F 5.0 °F 30.46 in Calm   6.0 mph 55% 0.00 in CLR
02:45 18.4 °F 4.9 °F 30.47 in SE 1.0 mph 7.0 mph 55% 0.00 in CLR
03:00 18.3 °F 5.2 °F 30.46 in Calm   6.0 mph 56% 0.00 in CLR
03:15 18.3 °F 5.2 °F 30.46 in NNE 1.0 mph 6.0 mph 56% 0.00 in CLR
03:30 18.1 °F 5.4 °F 30.46 in North 1.0 mph 5.0 mph 57% 0.00 in CLR
03:45 18.0 °F 5.7 °F 30.45 in North 1.0 mph 3.0 mph 58% 0.00 in CLR
04:00 17.8 °F 5.5 °F 30.46 in North 1.0 mph 3.0 mph 58% 0.00 in CLR
04:15 17.8 °F 5.9 °F 30.47 in Calm   2.0 mph 59% 0.00 in CLR
04:30 17.6 °F 6.1 °F 30.47 in Calm   5.0 mph 60% 0.00 in CLR
04:45 17.5 °F 6.0 °F 30.47 in NNE 1.0 mph 5.0 mph 60% 0.00 in CLR
05:00 17.6 °F 6.8 °F 30.48 in North 2.0 mph 7.0 mph 62% 0.00 in CLR
05:15 17.3 °F 6.5 °F 30.48 in Calm   4.0 mph 62% 0.00 in CLR
05:30 17.3 °F 6.5 °F 30.48 in Calm   5.0 mph 62% 0.00 in CLR
05:45 17.1 °F 6.3 °F 30.49 in Calm   3.0 mph 62% 0.00 in CLR
06:00 17.1 °F 6.7 °F 30.49 in Calm   3.0 mph 63% 0.00 in CLR
06:15 17.2 °F 6.8 °F 30.49 in North 1.0 mph 4.0 mph 63% 0.00 in CLR
06:30 17.1 °F 6.7 °F 30.51 in Calm   2.0 mph 63% 0.00 in CLR
06:45 16.9 °F 6.5 °F 30.51 in Calm   2.0 mph 63% 0.00 in CLR
07:00 16.9 °F 6.8 °F 30.51 in Calm   3.0 mph 64% 0.00 in CLR
07:15 16.7 °F 7.0 °F 30.51 in Calm   2.0 mph 65% 0.00 in CLR
07:30 15.8 °F 6.8 °F 30.51 in Calm   2.0 mph 67% 0.00 in CLR
07:45 16.0 °F 6.7 °F 30.51 in Calm   3.0 mph 66% 0.00 in CLR
08:00 16.4 °F 6.3 °F 30.52 in Calm   5.0 mph 64% 0.00 in CLR
08:15 16.7 °F 6.3 °F 30.53 in Calm   3.0 mph 63% 0.00 in CLR
08:30 16.9 °F 6.5 °F 30.54 in Calm   3.0 mph 63% 0.00 in CLR
08:45 17.5 °F 6.7 °F 30.54 in Calm   2.0 mph 62% 0.00 in CLR
09:00 18.0 °F 7.5 °F 30.54 in Calm   5.0 mph 63% 0.00 in CLR
09:15 19.2 °F 8.3 °F 30.54 in NNE 1.0 mph 2.0 mph 62% 0.00 in CLR
09:30 19.7 °F 8.8 °F 30.54 in Calm   4.0 mph 62% 0.00 in CLR
09:45 20.6 °F 9.2 °F 30.55 in NW 2.0 mph 6.0 mph 61% 0.00 in CLR
10:00 21.7 °F 9.9 °F 30.55 in Calm   4.0 mph 60% 0.00 in CLR
10:15 21.3 °F 8.0 °F 30.55 in Calm   6.0 mph 56% 0.00 in CLR
10:30 21.7 °F 8.0 °F 30.55 in Calm   5.0 mph 55% 0.00 in CLR
10:45 22.6 °F 8.4 °F 30.54 in WSW 1.0 mph 6.0 mph 54% 0.00 in CLR
11:00 22.8 °F 8.2 °F 30.55 in WNW 1.0 mph 5.0 mph 53% 0.00 in CLR
11:15 24.5 °F 8.5 °F 30.53 in ENE 1.0 mph 7.0 mph 50% 0.00 in CLR
11:30 24.8 °F 10.1 °F 30.53 in Calm   2.0 mph 53% 0.00 in CLR
11:45 25.5 °F 9.4 °F 30.52 in NW 1.0 mph 5.0 mph 50% 0.00 in CLR
12:00 25.8 °F 8.8 °F 30.51 in Calm   4.0 mph 48% 0.00 in CLR
12:15 26.6 °F 9.0 °F 30.50 in Calm   5.0 mph 47% 0.00 in CLR
12:30 26.3 °F 7.3 °F 30.50 in NNE 1.0 mph 3.0 mph 44% 0.00 in CLR
12:45 26.9 °F 6.8 °F 30.50 in SW 1.0 mph 5.0 mph 42% 0.00 in CLR
13:00 27.9 °F 6.1 °F 30.50 in WNW 2.0 mph 7.0 mph 39% 0.00 in CLR
13:15 28.7 °F 5.1 °F 30.49 in SW 1.0 mph 4.0 mph 36% 0.00 in CLR
13:30 29.2 °F 4.3 °F 30.48 in West 1.0 mph 5.0 mph 34% 0.00 in CLR
13:45 30.6 °F 4.2 °F 30.48 in West 1.0 mph 4.0 mph 32% 0.00 in CLR
14:00 30.1 °F 5.1 °F 30.47 in WNW 1.0 mph 5.0 mph 34% 0.00 in CLR
14:15 30.1 °F 6.9 °F 30.47 in Calm   7.0 mph 37% 0.00 in CLR
14:30 30.9 °F 7.0 °F 30.45 in WSW 5.0 mph 8.0 mph 36% 0.00 in CLR
14:45 31.9 °F 7.3 °F 30.44 in West 1.0 mph 5.0 mph 35% 0.00 in CLR
15:00 33.1 °F 7.7 °F 30.44 in SE 1.0 mph 8.0 mph 34% 0.00 in CLR
15:15 33.1 °F 6.4 °F 30.43 in SSW 5.0 mph 7.0 mph 32% 0.00 in CLR
15:30 32.6 °F 5.3 °F 30.42 in WSW 3.0 mph 9.0 mph 31% 0.00 in CLR
15:45 33.4 °F 5.9 °F 30.42 in SSW 1.0 mph 7.0 mph 31% 0.00 in CLR
16:00 33.8 °F 6.3 °F 30.41 in WSW 1.0 mph 6.0 mph 31% 0.00 in CLR
16:15 34.3 °F 5.3 °F 30.40 in South 1.0 mph 5.0 mph 29% 0.00 in CLR
16:30 34.8 °F 5.7 °F 30.40 in SW 2.0 mph 6.0 mph 29% 0.00 in CLR
16:45 34.5 °F 6.2 °F 30.39 in SSW 3.0 mph 6.0 mph 30% 0.00 in CLR
17:00 34.4 °F 10.2 °F 30.39 in SSW 1.0 mph 4.0 mph 36% 0.00 in CLR
17:15 33.5 °F 11.2 °F 30.39 in Calm   5.0 mph 39% 0.00 in CLR
17:30 33.3 °F 12.1 °F 30.39 in Calm   3.0 mph 41% 0.00 in CLR
17:45 33.3 °F 12.6 °F 30.39 in SSE 1.0 mph 4.0 mph 42% 0.00 in CLR
18:00 32.8 °F 12.2 °F 30.39 in Calm   5.0 mph 42% 0.00 in CLR
18:15 33.6 °F 12.4 °F 30.39 in Calm   4.0 mph 41% 0.00 in CLR
18:30 32.5 °F 11.9 °F 30.38 in SSE 2.0 mph 6.0 mph 42% 0.00 in CLR
18:45 31.1 °F 12.2 °F 30.37 in Calm   2.0 mph 45% 0.00 in CLR
19:00 29.9 °F 12.6 °F 30.37 in Calm   2.0 mph 48% 0.00 in CLR
19:15 29.1 °F 13.6 °F 30.38 in Calm   3.0 mph 52% 0.00 in CLR
19:30 28.6 °F 14.5 °F 30.39 in Calm   4.0 mph 55% 0.00 in CLR
19:45 28.2 °F 14.9 °F 30.38 in Calm   5.0 mph 57% 0.00 in CLR
20:00 27.9 °F 13.8 °F 30.37 in ESE 2.0 mph 7.0 mph 55% 0.00 in CLR
20:15 27.7 °F 13.2 °F 30.38 in SSE 1.0 mph 5.0 mph 54% 0.00 in FEW
20:30 27.4 °F 13.7 °F 30.38 in Calm   5.0 mph 56% 0.00 in FEW
20:45 27.6 °F 14.7 °F 30.39 in South 1.0 mph 4.0 mph 58% 0.00 in FEW
21:00 27.8 °F 15.7 °F 30.39 in Calm   4.0 mph 60% 0.00 in FEW
21:15 27.9 °F 16.6 °F 30.38 in Calm   1.0 mph 62% 0.00 in SCT
21:30 28.0 °F 17.4 °F 30.38 in NNW 1.0 mph 2.0 mph 64% 0.00 in SCT
21:45 28.1 °F 18.2 °F 30.37 in Calm   1.0 mph 66% 0.00 in SCT
22:00 28.2 °F 18.6 °F 30.36 in NE 1.0 mph 2.0 mph 67% 0.00 in SCT
22:15 28.1 °F 18.9 °F 30.36 in WNW 1.0 mph 2.0 mph 68% 0.00 in BKN
22:30 28.1 °F 19.2 °F 30.36 in Calm   2.0 mph 69% 0.00 in BKN
22:45 28.0 °F 19.5 °F 30.35 in Calm   4.0 mph 70% 0.00 in BKN
23:00 27.9 °F 20.0 °F 30.33 in Calm   4.0 mph 72% 0.00 in BKN
23:15 27.8 °F 20.2 °F 30.32 in Calm   3.0 mph 73% 0.00 in -SN
23:30 27.4 °F 21.4 °F 30.31 in NW 1.0 mph 3.0 mph 78% 0.00 in -SN
23:45 27.1 °F 21.7 °F 30.30 in Calm   2.0 mph 80% 0.00 in -SN
TarryTown NY Weather
Compliments of Weather Underground - 1.5 mb